Time;durP1;ratioP1;P1;durP2;ratioP2;P2;SDS_P1;SDS_P2;PMS_P1;PMS_P2;Temp;Humidity;BMP_temperature;BMP_pressure;BME280_temperature;BME280_humidity;BME280_pressure;Samples;Min_cycle;Max_cycle;Signal;HPM_P1;HPM_P2
2021/01/15 00:00:17;;;;;;;;;;;;;;;8.00;37.71;100654.88;5071655;28;20302;-88
2021/01/15 00:03:01;;;;;;;;;;;;;;;8.09;37.57;100661.19;5078810;28;19913;-88
2021/01/15 00:05:47;;;;;;;;;;;;;;;8.12;38.11;100663.31;5067630;28;19916;-88
2021/01/15 00:08:34;;;;;;;;;;;;;;;8.12;37.62;100660.63;5073615;28;19912;-87
2021/01/15 00:11:30;;;;;;;;;;;;;;;8.15;37.31;100662.72;5057667;28;19917;-88
2021/01/15 00:14:14;;;;;;;;;;;;;;;8.09;38.22;100667.44;5064852;28;19912;-88
2021/01/15 00:16:59;;;;;;;;;;;;;;;8.17;37.79;100674.06;5069593;28;19912;-89
2021/01/15 00:19:44;;;;;;;;;;;;;;;8.15;38.28;100666.22;5066626;28;19912;-88
2021/01/15 00:22:28;;;;;;;;;;;;;;;8.14;37.84;100669.22;5069374;28;19912;-89
2021/01/15 00:25:12;;;;;;;;;;;;;;;8.13;37.73;100667.63;5070031;28;19913;-89
2021/01/15 00:27:57;;;;;;;;;;;;;;;8.18;37.86;100670.22;5055800;28;20383;-88
2021/01/15 00:30:42;;;;;;;;;;;;;;;8.11;38.27;100661.72;5053268;28;19917;-88
2021/01/15 00:33:26;;;;;;;;;;;;;;;8.14;38.96;100663.81;5063839;28;19917;-89
2021/01/15 00:36:11;;;;;;;;;;;;;;;8.17;39.56;100663.22;5058124;28;19912;-88
2021/01/15 00:38:55;;;;;;;;;;;;;;;8.08;38.36;100649.56;5064768;28;19913;-88
2021/01/15 00:41:41;;;;;;;;;;;;;;;8.12;38.27;100660.63;5072653;28;19912;-88
2021/01/15 00:44:26;;;;;;;;;;;;;;;8.07;38.86;100656.09;5070490;28;19916;-88
2021/01/15 00:47:11;;;;;;;;;;;;;;;8.21;38.34;100650.69;5065260;28;19913;-87
2021/01/15 00:49:56;;;;;;;;;;;;;;;8.09;39.27;100655.78;5072700;28;19916;-87
2021/01/15 00:52:41;;;;;;;;;;;;;;;8.13;38.30;100654.06;5056081;28;19916;-87
2021/01/15 00:55:26;;;;;;;;;;;;;;;8.11;39.46;100661.72;5067111;28;19916;-88
2021/01/15 00:58:14;;;;;;;;;;;;;;;8.13;39.63;100667.63;5056487;28;19912;-87
2021/01/15 01:01:00;;;;;;;;;;;;;;;8.15;38.38;100670.84;5047347;28;19913;-87
2021/01/15 01:03:59;;;;;;;;;;;;;;;8.17;38.75;100668.66;5067043;28;19912;-88
2021/01/15 01:06:43;;;;;;;;;;;;;;;8.14;39.32;100674.66;5066991;28;19917;-87
2021/01/15 01:09:28;;;;;;;;;;;;;;;8.11;38.67;100680.66;5058012;28;19928;-88
2021/01/15 01:12:12;;;;;;;;;;;;;;;8.05;39.78;100668.31;5064815;28;19917;-88
2021/01/15 01:14:57;;;;;;;;;;;;;;;8.13;38.68;100675.75;5082495;28;19912;-88
2021/01/15 01:17:41;;;;;;;;;;;;;;;8.14;39.03;100677.34;5064690;28;19912;-88
2021/01/15 01:40:50;;;;;;;;;;;;;;;8.16;38.57;100692.22;5087314;28;19920;-83
2021/01/15 01:43:35;;;;;;;;;;;;;;;8.11;38.89;100696.94;5096914;28;19919;-83
2021/01/15 01:46:20;;;;;;;;;;;;;;;8.16;38.46;100684.09;5093509;28;20387;-83
2021/01/15 01:49:05;;;;;;;;;;;;;;;8.08;39.02;100686.66;5076720;28;19916;-84
2021/01/15 01:51:50;;;;;;;;;;;;;;;7.96;38.30;100680.97;5077304;28;19920;-83
2021/01/15 01:54:36;;;;;;;;;;;;;;;8.09;39.91;100682.88;5091435;28;19915;-84
2021/01/15 01:57:21;;;;;;;;;;;;;;;8.13;39.49;100678.44;5097718;28;19912;-83
2021/01/15 02:00:05;;;;;;;;;;;;;;;8.09;38.78;100691.00;5083154;28;19916;-83
2021/01/15 02:02:56;;;;;;;;;;;;;;;8.12;38.55;100683.09;5084092;28;19912;-82
2021/01/15 02:05:40;;;;;;;;;;;;;;;8.08;38.60;100689.38;5080749;28;19912;-83
2021/01/15 02:08:29;;;;;;;;;;;;;;;8.27;38.38;100694.72;5093694;28;19912;-81
2021/01/15 02:11:22;;;;;;;;;;;;;;;8.16;39.21;100691.41;5082979;28;19916;-83
2021/01/15 02:14:18;;;;;;;;;;;;;;;8.14;38.72;100702.53;5091532;28;19912;-83
2021/01/15 02:17:08;;;;;;;;;;;;;;;8.07;38.55;100707.56;5100227;28;19912;-83
2021/01/15 02:20:01;;;;;;;;;;;;;;;8.08;39.02;100702.91;5080148;28;20382;-83
2021/01/15 02:22:45;;;;;;;;;;;;;;;7.98;39.57;100692.28;5093789;28;19916;-82
2021/01/15 02:25:30;;;;;;;;;;;;;;;8.09;39.56;100688.28;5081594;28;19912;-81
2021/01/15 02:28:33;;;;;;;;;;;;;;;8.10;38.61;100696.13;5081806;28;19912;-83
2021/01/15 02:31:17;;;;;;;;;;;;;;;8.11;38.42;100703.16;5092056;28;19923;-83
2021/01/15 02:34:22;;;;;;;;;;;;;;;8.19;38.79;100696.22;5080497;28;19915;-83
2021/01/15 02:37:27;;;;;;;;;;;;;;;7.98;38.02;100698.50;5084445;28;19912;-81
2021/01/15 02:40:22;;;;;;;;;;;;;;;7.97;38.60;100698.81;5076650;28;19912;-83
2021/01/15 02:43:06;;;;;;;;;;;;;;;7.90;39.94;100695.69;5093504;28;20386;-82
2021/01/15 02:45:54;;;;;;;;;;;;;;;7.89;39.01;100685.94;5099377;28;19916;-82
2021/01/15 02:48:41;;;;;;;;;;;;;;;7.70;39.33;100689.53;5082678;28;20379;-83
2021/01/15 02:51:26;;;;;;;;;;;;;;;7.47;39.85;100687.72;5077581;28;19919;-82
2021/01/15 02:54:10;;;;;;;;;;;;;;;7.62;40.68;100690.19;5089671;28;19923;-82
2021/01/15 02:56:54;;;;;;;;;;;;;;;7.66;40.63;100695.81;5076552;28;20386;-83
2021/01/15 02:59:39;;;;;;;;;;;;;;;7.22;39.84;100691.63;5089184;28;19912;-82
2021/01/15 03:02:32;;;;;;;;;;;;;;;7.39;40.74;100695.72;5074534;28;19916;-82
2021/01/15 03:05:21;;;;;;;;;;;;;;;7.58;40.04;100682.94;5074039;28;19912;-83
2021/01/15 03:08:05;;;;;;;;;;;;;;;7.28;40.35;100684.25;5090928;28;19915;-82
2021/01/15 03:10:51;;;;;;;;;;;;;;;7.44;41.04;100691.03;5098254;28;19912;-82
2021/01/15 03:13:36;;;;;;;;;;;;;;;7.39;40.39;100696.50;5097285;28;19912;-83
2021/01/15 03:16:21;;;;;;;;;;;;;;;7.46;40.33;100702.38;5091806;28;20414;-82
2021/01/15 03:19:06;;;;;;;;;;;;;;;7.50;40.37;100702.56;5093361;28;20400;-83
2021/01/15 03:21:51;;;;;;;;;;;;;;;7.54;39.61;100690.88;5082412;28;19912;-84
2021/01/15 03:24:36;;;;;;;;;;;;;;;7.52;40.29;100697.66;5087136;28;20313;-82
2021/01/15 03:27:22;;;;;;;;;;;;;;;7.47;40.53;100698.53;5085993;28;20366;-80
2021/01/15 03:30:07;;;;;;;;;;;;;;;7.44;40.92;100682.91;5093397;28;19911;-81
2021/01/15 03:32:53;;;;;;;;;;;;;;;7.48;41.81;100681.22;5096414;28;19916;-83
2021/01/15 03:35:38;;;;;;;;;;;;;;;7.56;40.77;100680.56;5079433;28;19915;-83
2021/01/15 03:38:22;;;;;;;;;;;;;;;7.65;40.81;100676.06;5090200;28;19912;-82
2021/01/15 03:41:07;;;;;;;;;;;;;;;7.50;40.27;100679.03;5082555;28;19912;-82
2021/01/15 03:43:51;;;;;;;;;;;;;;;7.35;39.99;100676.56;5082955;28;19997;-82
2021/01/15 03:46:36;;;;;;;;;;;;;;;7.34;40.68;100684.97;5079226;28;19916;-82
2021/01/15 03:49:21;;;;;;;;;;;;;;;7.43;40.13;100686.72;5091605;28;19911;-83
2021/01/15 03:52:09;;;;;;;;;;;;;;;7.48;40.60;100688.53;5077108;28;19916;-83
2021/01/15 03:54:54;;;;;;;;;;;;;;;7.37;40.17;100687.06;5084739;28;19912;-82
2021/01/15 03:57:39;;;;;;;;;;;;;;;7.42;40.72;100693.22;5097010;28;19912;-82
2021/01/15 04:00:24;;;;;;;;;;;;;;;7.55;40.27;100695.19;5073713;28;19917;-82
2021/01/15 04:03:08;;;;;;;;;;;;;;;7.78;39.97;100698.84;5097058;28;19912;-83
2021/01/15 04:05:54;;;;;;;;;;;;;;;7.88;39.83;100695.97;5093024;28;19912;-81
2021/01/15 04:08:38;;;;;;;;;;;;;;;7.84;39.26;100694.97;5078799;28;19919;-82
2021/01/15 04:11:23;;;;;;;;;;;;;;;7.65;39.81;100696.91;5081408;28;19916;-83
2021/01/15 04:14:07;;;;;;;;;;;;;;;7.53;40.80;100689.25;5092145;28;19912;-84
2021/01/15 04:16:52;;;;;;;;;;;;;;;7.50;40.38;100687.16;5082775;28;19912;-81
2021/01/15 04:19:36;;;;;;;;;;;;;;;7.50;40.45;100697.97;5081208;28;19920;-83
2021/01/15 04:22:20;;;;;;;;;;;;;;;7.74;39.36;100684.31;5089311;28;19912;-83
2021/01/15 04:25:06;;;;;;;;;;;;;;;7.44;40.42;100672.09;5083657;28;20370;-83
2021/01/15 04:27:51;;;;;;;;;;;;;;;7.34;40.92;100683.06;5080301;28;19916;-83
2021/01/15 04:30:35;;;;;;;;;;;;;;;7.32;41.16;100677.13;5094831;28;19912;-83
2021/01/15 04:33:19;;;;;;;;;;;;;;;7.25;40.75;100684.84;5093136;28;19915;-83
2021/01/15 04:36:05;;;;;;;;;;;;;;;7.14;40.46;100673.38;5090175;28;19912;-83
2021/01/15 04:38:50;;;;;;;;;;;;;;;7.31;40.63;100675.56;5098700;28;19924;-83
2021/01/15 04:41:35;;;;;;;;;;;;;;;7.54;40.81;100680.03;5101506;28;19934;-81
2021/01/15 04:44:19;;;;;;;;;;;;;;;7.60;40.93;100678.88;5081356;28;19912;-83
2021/01/15 04:47:08;;;;;;;;;;;;;;;7.57;40.17;100676.72;5085371;28;19913;-83
2021/01/15 04:49:53;;;;;;;;;;;;;;;7.41;40.28;100682.72;5084238;28;19912;-84
2021/01/15 04:52:44;;;;;;;;;;;;;;;7.20;40.52;100671.41;5090126;28;19979;-85
2021/01/15 04:55:30;;;;;;;;;;;;;;;7.23;40.62;100676.22;5097479;28;19920;-83
2021/01/15 04:58:15;;;;;;;;;;;;;;;7.22;40.82;100674.59;5087357;28;19911;-84
2021/01/15 05:01:02;;;;;;;;;;;;;;;7.35;41.10;100676.56;5093020;28;19911;-84
2021/01/15 05:03:46;;;;;;;;;;;;;;;7.17;40.97;100675.47;5096455;28;20309;-84
2021/01/15 05:06:41;;;;;;;;;;;;;;;7.19;41.52;100683.31;5079338;28;19916;-83
2021/01/15 05:09:27;;;;;;;;;;;;;;;7.10;40.66;100676.97;5080805;28;19916;-84
2021/01/15 05:12:13;;;;;;;;;;;;;;;7.20;40.08;100682.22;5074807;28;19916;-80
2021/01/15 05:14:57;;;;;;;;;;;;;;;7.12;41.34;100680.97;5076290;28;19915;-82
2021/01/15 05:17:43;;;;;;;;;;;;;;;7.23;40.33;100676.22;5076331;28;19912;-82
2021/01/15 05:20:29;;;;;;;;;;;;;;;7.32;40.19;100683.34;5093028;28;20386;-82
2021/01/15 05:23:15;;;;;;;;;;;;;;;7.14;40.59;100680.66;5063192;28;19912;-83
2021/01/15 05:25:59;;;;;;;;;;;;;;;7.06;40.99;100678.63;5083202;28;19912;-81
2021/01/15 05:28:45;;;;;;;;;;;;;;;7.31;40.05;100678.25;5082947;28;19912;-83
2021/01/15 05:31:49;;;;;;;;;;;;;;;7.19;40.41;100680.59;5078283;28;19916;-83
2021/01/15 05:34:34;;;;;;;;;;;;;;;7.10;41.36;100687.78;5073126;28;20302;-81
2021/01/15 05:37:20;;;;;;;;;;;;;;;7.18;40.50;100692.50;5093107;28;19912;-82
2021/01/15 05:40:05;;;;;;;;;;;;;;;7.04;40.91;100687.03;5090684;28;19912;-81
2021/01/15 05:42:50;;;;;;;;;;;;;;;7.13;40.97;100681.75;5073677;28;19936;-79
2021/01/15 05:45:34;;;;;;;;;;;;;;;7.26;40.56;100684.53;5090329;28;20270;-82
2021/01/15 05:48:26;;;;;;;;;;;;;;;7.21;40.92;100691.94;5106208;28;19920;-83
2021/01/15 05:51:27;;;;;;;;;;;;;;;7.05;40.43;100687.84;5072861;28;19916;-83
2021/01/15 05:54:27;;;;;;;;;;;;;;;7.07;40.16;100699.16;5098642;28;19916;-82
2021/01/15 05:57:24;;;;;;;;;;;;;;;7.11;40.80;100689.38;5093147;28;19912;-82
2021/01/15 06:00:09;;;;;;;;;;;;;;;7.28;40.43;100695.06;5080633;28;19912;-82
2021/01/15 06:02:54;;;;;;;;;;;;;;;7.27;40.53;100691.53;5077029;28;20290;-82
2021/01/15 06:05:39;;;;;;;;;;;;;;;7.31;40.71;100686.38;5090825;28;20374;-82
2021/01/15 06:08:40;;;;;;;;;;;;;;;7.26;41.04;100689.16;5079390;28;19912;-82
2021/01/15 06:11:25;;;;;;;;;;;;;;;7.17;40.85;100693.59;5073137;28;19912;-82
2021/01/15 06:14:17;;;;;;;;;;;;;;;7.23;41.72;100698.66;5083676;28;19916;-81
2021/01/15 06:17:09;;;;;;;;;;;;;;;6.99;41.43;100697.13;5088114;28;19912;-83
2021/01/15 06:19:54;;;;;;;;;;;;;;;7.05;40.80;100702.16;5099690;28;19912;-84
2021/01/15 06:22:49;;;;;;;;;;;;;;;6.97;40.92;100699.28;5089910;28;19912;-83
2021/01/15 06:25:34;;;;;;;;;;;;;;;7.01;41.21;100711.94;5095146;28;19912;-83
2021/01/15 06:28:19;;;;;;;;;;;;;;;6.99;42.22;100703.31;5090684;28;19911;-83
2021/01/15 06:31:07;;;;;;;;;;;;;;;7.03;41.11;100698.94;5086128;28;20306;-83
2021/01/15 06:34:01;;;;;;;;;;;;;;;6.96;42.25;100711.22;5095365;28;20305;-83
2021/01/15 06:36:48;;;;;;;;;;;;;;;6.90;42.43;100710.47;5075108;28;19912;-83
2021/01/15 06:39:33;;;;;;;;;;;;;;;6.99;41.78;100713.34;5096489;28;19912;-83
2021/01/15 06:42:20;;;;;;;;;;;;;;;6.84;42.55;100709.75;5077367;28;19920;-81
2021/01/15 06:45:13;;;;;;;;;;;;;;;6.79;42.75;100715.22;5074046;28;19920;-85
2021/01/15 06:48:04;;;;;;;;;;;;;;;6.78;42.49;100721.72;5082843;28;19916;-84
2021/01/15 06:50:50;;;;;;;;;;;;;;;6.80;42.29;100722.25;5074623;28;19912;-83
2021/01/15 06:53:43;;;;;;;;;;;;;;;6.86;41.85;100720.25;5092304;28;19916;-85
2021/01/15 06:56:29;;;;;;;;;;;;;;;6.89;41.63;100725.09;5095605;28;19912;-84
2021/01/15 06:59:18;;;;;;;;;;;;;;;6.74;41.60;100722.59;5097130;28;20446;-84
2021/01/15 07:02:06;;;;;;;;;;;;;;;6.81;41.81;100729.22;5081688;28;19916;-85
2021/01/15 07:04:58;;;;;;;;;;;;;;;6.88;41.92;100720.78;5087030;28;20374;-84
2021/01/15 07:07:44;;;;;;;;;;;;;;;6.90;41.15;100725.91;5082605;28;19912;-84
2021/01/15 07:10:29;;;;;;;;;;;;;;;6.80;41.02;100722.25;5087724;28;19931;-83
2021/01/15 07:13:20;;;;;;;;;;;;;;;6.68;41.16;100721.03;5089101;28;19917;-84
2021/01/15 07:16:07;;;;;;;;;;;;;;;6.65;41.00;100724.31;5096512;28;19924;-83
2021/01/15 07:18:56;;;;;;;;;;;;;;;6.74;40.72;100728.78;5070191;28;19912;-85
2021/01/15 07:22:00;;;;;;;;;;;;;;;6.71;41.13;100734.75;5118647;22;19919;-80
2021/01/15 07:24:44;;;;;;;;;;;;;;;6.72;40.92;100741.78;5107174;28;19916;-83
2021/01/15 07:27:30;;;;;;;;;;;;;;;6.65;41.16;100748.63;5114879;28;19911;-82
2021/01/15 07:30:19;;;;;;;;;;;;;;;6.77;41.75;100754.41;5128707;27;19911;-83
2021/01/15 07:33:05;;;;;;;;;;;;;;;6.64;43.03;100749.72;5115240;28;19915;-84
2021/01/15 07:35:50;;;;;;;;;;;;;;;6.29;44.23;100757.13;5128899;27;19915;-78
2021/01/15 07:38:34;;;;;;;;;;;;;;;6.23;43.80;100752.06;5094738;28;19920;-78
2021/01/15 07:41:36;;;;;;;;;;;;;;;6.33;42.61;100757.34;5081209;28;19912;-78
2021/01/15 07:44:26;;;;;;;;;;;;;;;6.28;43.47;100752.00;5084740;28;19911;-77
2021/01/15 07:47:20;;;;;;;;;;;;;;;6.28;44.54;100766.31;5097431;28;19912;-78
2021/01/15 07:50:05;;;;;;;;;;;;;;;6.20;43.00;100752.59;5096278;28;19912;-78
2021/01/15 07:53:05;;;;;;;;;;;;;;;6.25;45.27;100764.16;5087437;28;20386;-80
2021/01/15 07:55:53;;;;;;;;;;;;;;;6.43;45.24;100760.75;5089025;28;19912;-77
2021/01/15 07:58:39;;;;;;;;;;;;;;;6.55;45.87;100765.78;5098488;28;19915;-78
2021/01/15 08:01:24;;;;;;;;;;;;;;;6.45;45.14;100763.16;5104516;28;19915;-78
2021/01/15 08:04:08;;;;;;;;;;;;;;;6.35;44.06;100769.47;5102660;28;19916;-77
2021/01/15 08:06:57;;;;;;;;;;;;;;;6.45;43.86;100777.47;5112449;28;20370;-79
2021/01/15 08:09:42;;;;;;;;;;;;;;;6.48;43.73;100770.69;5106178;28;19911;-78
2021/01/15 08:12:37;;;;;;;;;;;;;;;6.54;44.57;100783.06;5116253;28;19916;-78
2021/01/15 08:15:32;;;;;;;;;;;;;;;6.78;44.71;100789.28;5116377;28;19912;-78
2021/01/15 08:18:17;;;;;;;;;;;;;;;6.97;43.98;100792.00;5119332;28;19912;-78
2021/01/15 08:21:01;;;;;;;;;;;;;;;7.02;44.41;100785.72;5118468;28;19912;-78
2021/01/15 08:23:46;;;;;;;;;;;;;;;6.96;43.68;100795.03;5118547;28;20394;-85
2021/01/15 08:26:30;;;;;;;;;;;;;;;7.02;42.31;100799.25;5122391;28;19911;-84
2021/01/15 08:29:15;;;;;;;;;;;;;;;6.93;41.26;100801.00;5117790;28;19911;-84
2021/01/15 08:32:00;;;;;;;;;;;;;;;6.79;42.08;100799.00;5116826;28;19919;-84
2021/01/15 08:34:44;;;;;;;;;;;;;;;6.82;42.63;100811.91;5117702;28;19912;-84
2021/01/15 08:37:29;;;;;;;;;;;;;;;6.68;41.38;100813.72;5122763;28;19916;-84
2021/01/15 08:40:24;;;;;;;;;;;;;;;6.68;43.50;100826.41;5115040;28;19911;-84
2021/01/15 08:43:08;;;;;;;;;;;;;;;6.79;42.29;100826.03;5115618;28;19915;-84
2021/01/15 08:45:53;;;;;;;;;;;;;;;6.74;44.37;100831.47;5115604;28;19912;-85
2021/01/15 08:48:38;;;;;;;;;;;;;;;7.02;42.30;100839.81;5115470;28;19912;-86
2021/01/15 08:51:25;;;;;;;;;;;;;;;6.84;42.68;100842.19;5116465;28;19911;-85
2021/01/15 08:54:10;;;;;;;;;;;;;;;6.93;43.67;100841.53;5116600;28;20385;-86
2021/01/15 08:56:55;;;;;;;;;;;;;;;6.83;41.13;100845.97;5115535;28;19912;-86
2021/01/15 08:59:40;;;;;;;;;;;;;;;6.73;44.42;100843.38;5120048;27;19911;-87
2021/01/15 09:02:26;;;;;;;;;;;;;;;6.63;42.85;100851.59;5116496;28;19912;-83
2021/01/15 09:05:14;;;;;;;;;;;;;;;6.54;42.77;100850.59;5114453;28;19912;-84
2021/01/15 09:08:01;;;;;;;;;;;;;;;6.65;43.31;100860.22;5121129;27;19911;-82
2021/01/15 09:10:48;;;;;;;;;;;;;;;6.74;44.52;100869.31;5113717;28;19911;-84
2021/01/15 09:13:34;;;;;;;;;;;;;;;6.89;43.60;100868.34;5113569;28;19916;-83
2021/01/15 09:16:21;;;;;;;;;;;;;;;7.03;43.86;100863.84;5113653;28;19912;-85
2021/01/15 09:19:10;;;;;;;;;;;;;;;7.26;43.55;100867.66;5115713;28;19912;-83
2021/01/15 09:21:56;;;;;;;;;;;;;;;7.43;44.03;100870.66;5116882;28;20282;-82
2021/01/15 09:24:40;;;;;;;;;;;;;;;6.71;42.38;100877.97;5117180;28;20289;-86
2021/01/15 09:27:25;;;;;;;;;;;;;;;6.40;42.14;100873.94;5115630;28;19911;-84
2021/01/15 09:30:12;;;;;;;;;;;;;;;6.29;42.71;100878.63;5105760;28;19915;-85
2021/01/15 09:32:56;;;;;;;;;;;;;;;6.43;42.13;100874.19;5113978;28;19916;-84
2021/01/15 09:35:41;;;;;;;;;;;;;;;6.37;42.17;100875.31;5105518;28;19911;-85
2021/01/15 09:38:25;;;;;;;;;;;;;;;6.47;41.81;100877.13;5105333;28;19912;-85
2021/01/15 09:41:10;;;;;;;;;;;;;;;6.49;41.53;100871.44;5084578;28;19912;-85
2021/01/15 09:43:55;;;;;;;;;;;;;;;6.33;42.27;100868.88;5092717;28;19920;-84
2021/01/15 09:46:40;;;;;;;;;;;;;;;6.42;43.12;100872.56;5099758;28;19912;-87
2021/01/15 09:49:25;;;;;;;;;;;;;;;6.43;42.72;100873.38;5100902;28;19912;-88
2021/01/15 09:52:18;;;;;;;;;;;;;;;6.48;42.86;100878.75;5095620;28;20386;-87
2021/01/15 09:55:03;;;;;;;;;;;;;;;6.42;43.17;100880.69;5093535;28;19916;-86
2021/01/15 09:57:48;;;;;;;;;;;;;;;6.37;42.38;100879.91;5099786;28;19912;-88
2021/01/15 10:00:33;;;;;;;;;;;;;;;6.39;43.14;100888.56;5099697;28;19912;-87
2021/01/15 10:03:18;;;;;;;;;;;;;;;6.53;42.53;100883.28;5099406;28;20290;-87
2021/01/15 10:06:02;;;;;;;;;;;;;;;6.41;42.03;100887.16;5093194;28;19912;-88
2021/01/15 10:08:47;;;;;;;;;;;;;;;6.37;41.75;100880.72;5084831;28;19911;-88
2021/01/15 10:11:32;;;;;;;;;;;;;;;6.41;42.76;100886.34;5103456;28;19912;-87
2021/01/15 10:14:17;;;;;;;;;;;;;;;6.43;42.29;100878.78;5104363;28;19915;-87
2021/01/15 10:17:03;;;;;;;;;;;;;;;6.39;41.75;100878.56;5105114;28;19912;-86
2021/01/15 10:19:58;;;;;;;;;;;;;;;6.50;41.98;100881.16;5103935;28;19911;-86
2021/01/15 10:22:42;;;;;;;;;;;;;;;6.56;41.59;100872.72;5113695;28;19912;-85
2021/01/15 10:25:27;;;;;;;;;;;;;;;6.49;40.72;100872.25;5103232;28;20305;-85
2021/01/15 10:28:12;;;;;;;;;;;;;;;6.61;40.53;100861.03;5097112;27;19912;-86
2021/01/15 10:30:57;;;;;;;;;;;;;;;6.73;40.59;100866.88;5106571;28;19912;-86
2021/01/15 10:33:41;;;;;;;;;;;;;;;7.02;40.01;100880.34;5117077;28;19915;-85
2021/01/15 10:36:26;;;;;;;;;;;;;;;7.27;39.30;100872.75;5108975;28;19911;-86
2021/01/15 10:39:14;;;;;;;;;;;;;;;7.30;38.82;100872.19;5100010;28;19915;-86
2021/01/15 10:41:59;;;;;;;;;;;;;;;7.08;39.18;100877.31;5086616;28;19920;-86
2021/01/15 10:44:43;;;;;;;;;;;;;;;7.04;39.81;100872.78;5100401;28;19912;-87
2021/01/15 10:47:30;;;;;;;;;;;;;;;7.03;39.24;100873.88;5088937;28;20393;-86
2021/01/15 10:50:16;;;;;;;;;;;;;;;6.82;38.73;100865.16;5100939;28;19912;-87
2021/01/15 10:53:00;;;;;;;;;;;;;;;6.88;39.24;100870.25;5095020;28;19916;-87
2021/01/15 10:55:47;;;;;;;;;;;;;;;6.93;39.70;100872.06;5115902;28;19912;-87
2021/01/15 10:59:03;;;;;;;;;;;;;;;6.84;39.54;100863.00;5100667;28;20305;-87
2021/01/15 11:01:49;;;;;;;;;;;;;;;6.82;39.90;100865.97;5097372;28;19912;-87
2021/01/15 11:04:33;;;;;;;;;;;;;;;6.97;40.01;100862.28;5098681;28;19911;-87
2021/01/15 11:07:18;;;;;;;;;;;;;;;6.78;39.31;100856.03;5105543;28;19912;-88
2021/01/15 11:10:03;;;;;;;;;;;;;;;6.92;39.96;100856.94;5094186;28;19911;-87
2021/01/15 11:12:47;;;;;;;;;;;;;;;6.90;39.91;100855.63;5102598;28;19916;-87
2021/01/15 11:15:32;;;;;;;;;;;;;;;6.97;39.77;100862.28;5106655;28;19912;-87
2021/01/15 11:18:17;;;;;;;;;;;;;;;6.87;39.38;100846.19;5103942;28;19920;-87
2021/01/15 11:21:01;;;;;;;;;;;;;;;6.90;39.12;100850.22;5105783;28;19912;-87
2021/01/15 11:23:46;;;;;;;;;;;;;;;6.79;38.76;100847.63;5100078;28;20374;-86
2021/01/15 11:26:31;;;;;;;;;;;;;;;7.01;38.76;100841.69;5112672;28;19912;-86
2021/01/15 11:29:16;;;;;;;;;;;;;;;6.95;38.90;100842.06;5103222;28;19927;-86
2021/01/15 11:32:01;;;;;;;;;;;;;;;7.05;37.47;100833.84;5085351;28;19912;-87
2021/01/15 11:34:45;;;;;;;;;;;;;;;6.99;37.72;100832.28;5095502;28;19923;-86
2021/01/15 11:37:33;;;;;;;;;;;;;;;7.14;36.77;100837.50;5124069;28;19915;-87
2021/01/15 11:40:18;;;;;;;;;;;;;;;7.11;36.94;100832.69;5116347;28;20281;-86
2021/01/15 11:43:02;;;;;;;;;;;;;;;7.26;37.38;100835.19;5114394;28;19916;-86
2021/01/15 11:45:46;;;;;;;;;;;;;;;7.52;36.39;100841.06;5108464;28;19916;-85
2021/01/15 11:48:32;;;;;;;;;;;;;;;7.78;36.49;100842.31;5110577;28;19912;-85
2021/01/15 11:51:20;;;;;;;;;;;;;;;7.69;35.70;100838.66;5112692;28;20386;-86
2021/01/15 11:54:12;;;;;;;;;;;;;;;7.60;35.52;100837.72;5109159;28;19919;-86
2021/01/15 11:56:56;;;;;;;;;;;;;;;7.84;34.99;100832.22;5122912;27;19912;-86
2021/01/15 11:59:41;;;;;;;;;;;;;;;7.81;35.30;100830.09;5117472;28;19916;-86
2021/01/15 12:02:29;;;;;;;;;;;;;;;7.71;34.17;100822.94;5112303;28;19912;-86
2021/01/15 12:05:14;;;;;;;;;;;;;;;7.79;34.63;100818.75;5111575;28;19912;-86
2021/01/15 12:07:58;;;;;;;;;;;;;;;7.74;34.94;100817.75;5102557;28;19912;-86
2021/01/15 12:10:50;;;;;;;;;;;;;;;7.80;34.26;100810.34;5099703;28;19912;-87
2021/01/15 12:13:35;;;;;;;;;;;;;;;7.74;34.56;100801.50;5101321;28;19915;-85
2021/01/15 12:16:25;;;;;;;;;;;;;;;7.79;33.76;100789.78;5101198;28;19915;-86
2021/01/15 12:19:09;;;;;;;;;;;;;;;7.46;34.66;100783.53;5120850;28;19915;-86
2021/01/15 12:21:54;;;;;;;;;;;;;;;7.66;34.12;100796.75;5098116;28;19911;-86
2021/01/15 12:24:40;;;;;;;;;;;;;;;7.71;34.17;100787.75;5111316;28;19911;-85
2021/01/15 12:27:26;;;;;;;;;;;;;;;7.58;33.81;100788.47;5101837;28;20386;-86
2021/01/15 12:30:13;;;;;;;;;;;;;;;7.26;34.37;100795.41;5101456;28;19912;-85
2021/01/15 12:32:58;;;;;;;;;;;;;;;7.24;34.93;100788.69;5095139;28;19916;-85
2021/01/15 12:35:47;;;;;;;;;;;;;;;7.32;35.57;100793.44;5095034;28;19912;-86
2021/01/15 12:38:32;;;;;;;;;;;;;;;7.43;35.08;100792.22;5100917;28;20294;-86
2021/01/15 12:41:19;;;;;;;;;;;;;;;7.58;35.22;100791.19;5099271;28;19912;-86
2021/01/15 12:44:04;;;;;;;;;;;;;;;7.35;34.65;100792.88;5094175;28;19912;-86
2021/01/15 12:46:50;;;;;;;;;;;;;;;7.32;35.56;100785.34;5100801;28;19916;-85
2021/01/15 12:49:35;;;;;;;;;;;;;;;7.48;35.19;100792.13;5117788;28;19911;-86
2021/01/15 12:52:19;;;;;;;;;;;;;;;7.74;34.37;100784.44;5095929;28;19915;-86
2021/01/15 12:55:06;;;;;;;;;;;;;;;8.19;34.38;100780.19;5086134;28;19912;-86
2021/01/15 12:57:52;;;;;;;;;;;;;;;7.76;33.62;100781.47;5086236;28;19912;-86
2021/01/15 13:00:37;;;;;;;;;;;;;;;8.04;34.69;100794.00;5099934;28;19912;-86
2021/01/15 13:03:23;;;;;;;;;;;;;;;8.10;33.86;100793.63;5100287;28;20374;-86
2021/01/15 13:06:08;;;;;;;;;;;;;;;8.24;33.80;100792.84;5099913;28;19911;-85
2021/01/15 13:08:52;;;;;;;;;;;;;;;8.08;33.92;100790.38;5079648;28;19911;-85
2021/01/15 13:11:37;;;;;;;;;;;;;;;7.79;34.10;100795.19;5097445;28;19912;-86
2021/01/15 13:14:21;;;;;;;;;;;;;;;7.62;34.58;100789.50;5085595;28;19916;-86
2021/01/15 13:17:17;;;;;;;;;;;;;;;7.50;34.84;100795.38;5114701;28;19911;-86
2021/01/15 13:20:01;;;;;;;;;;;;;;;7.37;35.71;100796.06;5085478;28;19912;-86
2021/01/15 13:22:47;;;;;;;;;;;;;;;7.62;35.02;100795.72;5101966;22;19920;-85
2021/01/15 13:25:32;;;;;;;;;;;;;;;7.83;34.67;100785.38;5084459;28;19916;-85
2021/01/15 13:28:16;;;;;;;;;;;;;;;8.19;34.91;100785.59;5100071;28;19912;-85
2021/01/15 13:31:01;;;;;;;;;;;;;;;8.37;34.59;100783.97;5086763;28;20402;-84
2021/01/15 13:33:46;;;;;;;;;;;;;;;9.26;32.32;100777.03;5064339;28;19920;-85
2021/01/15 13:36:30;;;;;;;;;;;;;;;9.38;32.00;100788.16;5082077;28;19912;-85
2021/01/15 13:39:15;;;;;;;;;;;;;;;10.00;30.58;100796.50;5066695;28;19913;-85
2021/01/15 13:41:59;;;;;;;;;;;;;;;13.72;26.07;100802.31;5063821;28;19912;-84
2021/01/15 13:44:44;;;;;;;;;;;;;;;14.91;23.10;100798.66;5067517;28;20362;-85
2021/01/15 13:47:29;;;;;;;;;;;;;;;11.84;26.79;100793.78;5077026;28;19912;-85
2021/01/15 13:50:19;;;;;;;;;;;;;;;11.39;27.07;100801.41;5078651;28;19919;-85
2021/01/15 13:53:04;;;;;;;;;;;;;;;10.37;28.44;100791.78;5070075;28;20371;-84
2021/01/15 13:55:52;;;;;;;;;;;;;;;10.03;30.09;100795.88;5065661;28;19912;-84
2021/01/15 13:58:39;;;;;;;;;;;;;;;9.91;30.09;100797.53;5075781;28;19913;-85
2021/01/15 14:01:23;;;;;;;;;;;;;;;9.38;30.58;100801.72;5048054;28;19917;-83
2021/01/15 14:04:08;;;;;;;;;;;;;;;8.46;31.62;100803.84;5046121;28;19912;-86
2021/01/15 14:06:53;;;;;;;;;;;;;;;8.22;32.98;100803.19;5044039;28;20371;-84
2021/01/15 14:09:37;;;;;;;;;;;;;;;8.17;32.87;100801.38;5049356;28;19920;-85
2021/01/15 14:12:21;;;;;;;;;;;;;;;8.26;33.51;100794.16;5047331;28;19913;-85
2021/01/15 14:15:10;;;;;;;;;;;;;;;8.20;34.44;100794.53;5051310;28;19917;-84
2021/01/15 14:17:55;;;;;;;;;;;;;;;7.96;33.73;100803.59;5051920;28;19912;-85
2021/01/15 14:20:39;;;;;;;;;;;;;;;8.15;33.70;100808.97;5067431;28;20290;-85
2021/01/15 14:23:25;;;;;;;;;;;;;;;7.98;34.65;100811.41;5069431;28;19912;-86
2021/01/15 14:26:10;;;;;;;;;;;;;;;7.98;34.79;100811.41;5057672;28;19913;-81
2021/01/15 14:28:56;;;;;;;;;;;;;;;8.04;34.46;100810.22;5057160;28;20299;-82
2021/01/15 14:31:41;;;;;;;;;;;;;;;7.93;35.23;100811.50;5056666;28;19912;-82
2021/01/15 14:34:25;;;;;;;;;;;;;;;7.90;34.90;100814.78;5042266;28;19916;-82
2021/01/15 14:37:12;;;;;;;;;;;;;;;7.83;35.53;100808.94;5059574;28;19913;-82
2021/01/15 14:39:58;;;;;;;;;;;;;;;7.73;35.68;100820.72;5058246;28;19916;-82
2021/01/15 14:42:44;;;;;;;;;;;;;;;7.79;35.02;100808.72;5056889;28;19912;-85
2021/01/15 14:45:28;;;;;;;;;;;;;;;7.76;34.85;100813.94;5050037;28;19916;-83